Big Bear Station Historical Data
Daily Summary for December 07, 2017 Units:  Both    English   Metric
Next Day »
Daily Weekly Monthly Yearly Custom
  High: Low: Average:
Temperature: 43.2 °F /  6.2 °C 27.1 °F /  -2.7 °C 34.4 °F /  1.3 °C
Dew Point: 13.0 °F /  -10.6 °C -3.0 °F /  -19.4 °C 4.4 °F /  -15.3 °C
Humidity: 35% 19% 28%
Wind Speed: 9.9mph /  15.9km/h - 2.3mph /  3.7km/h
Wind Gust: -999.0mph /  -1607.7km/h - -
Wind- - SW
Pressure: 30.44 in /  1030.7 hPa 30.34 in /  1027.3 hPa -
Precipitation: 0.00 in /  0 mm    
Historical Graphs
 
 
Tabular Data for December 07, 2017
Time Temperature Dew Point Pressure Wind Wind Speed Wind Gust Humidity Rainfall Rate (Hourly)
00:04 30.0 °F /  -1.1 °C 2.3 °F /  -16.5 °C 30.35in /  1027.7hPa Calm   -999.0mph /  -1607.7km/h 30% 0in /  0mm
00:20 29.8 °F /  -1.2 °C 2.8 °F /  -16.2 °C 30.35in /  1027.7hPa NNW 1.7mph /  2.7km/h -999.0mph /  -1607.7km/h 31% 0in /  0mm
00:35 29.8 °F /  -1.2 °C 2.8 °F /  -16.2 °C 30.35in /  1027.7hPa West 1.7mph /  2.7km/h -999.0mph /  -1607.7km/h 31% 0in /  0mm
00:50 30.2 °F /  -1 °C 1.7 °F /  -16.8 °C 30.35in /  1027.7hPa WSW 1.7mph /  2.7km/h -999.0mph /  -1607.7km/h 29% 0in /  0mm
01:06 30.2 °F /  -1 °C 1.0 °F /  -17.2 °C 30.35in /  1027.7hPa Calm   -999.0mph /  -1607.7km/h 28% 0in /  0mm
01:21 30.6 °F /  -0.8 °C 1.3 °F /  -17.1 °C 30.34in /  1027.3hPa Calm   -999.0mph /  -1607.7km/h 28% 0in /  0mm
01:36 30.2 °F /  -1 °C 1.0 °F /  -17.2 °C 30.34in /  1027.3hPa Calm   -999.0mph /  -1607.7km/h 28% 0in /  0mm
01:51 30.2 °F /  -1 °C 1.7 °F /  -16.8 °C 30.34in /  1027.3hPa Calm   -999.0mph /  -1607.7km/h 29% 0in /  0mm
02:07 30.0 °F /  -1.1 °C 0.8 °F /  -17.3 °C 30.34in /  1027.3hPa SSW 1.7mph /  2.7km/h -999.0mph /  -1607.7km/h 28% 0in /  0mm
02:22 29.8 °F /  -1.2 °C 0.6 °F /  -17.4 °C 30.34in /  1027.3hPa Calm   -999.0mph /  -1607.7km/h 28% 0in /  0mm
02:37 30.0 °F /  -1.1 °C 0.8 °F /  -17.3 °C 30.34in /  1027.3hPa Calm   -999.0mph /  -1607.7km/h 28% 0in /  0mm
02:52 29.5 °F /  -1.4 °C 1.1 °F /  -17.2 °C 30.34in /  1027.3hPa WSW 1.1mph /  1.8km/h -999.0mph /  -1607.7km/h 29% 0in /  0mm
03:07 29.5 °F /  -1.4 °C 1.8 °F /  -16.8 °C 30.34in /  1027.3hPa Calm   -999.0mph /  -1607.7km/h 30% 0in /  0mm
03:23 29.3 °F /  -1.5 °C 1.7 °F /  -16.8 °C 30.34in /  1027.3hPa Calm   -999.0mph /  -1607.7km/h 30% 0in /  0mm
03:38 29.5 °F /  -1.4 °C 1.1 °F /  -17.2 °C 30.34in /  1027.3hPa Calm   -999.0mph /  -1607.7km/h 29% 0in /  0mm
03:53 29.1 °F /  -1.6 °C 1.5 °F /  -16.9 °C 30.34in /  1027.3hPa ESE 2.2mph /  3.5km/h -999.0mph /  -1607.7km/h 30% 0in /  0mm
04:08 29.5 °F /  -1.4 °C 1.8 °F /  -16.8 °C 30.35in /  1027.7hPa South 2.2mph /  3.5km/h -999.0mph /  -1607.7km/h 30% 0in /  0mm
04:23 29.5 °F /  -1.4 °C 1.1 °F /  -17.2 °C 30.35in /  1027.7hPa ESE 1.1mph /  1.8km/h -999.0mph /  -1607.7km/h 29% 0in /  0mm
05:09 28.6 °F /  -1.9 °C 0.3 °F /  -17.6 °C 30.35in /  1027.7hPa SE 1.1mph /  1.8km/h -999.0mph /  -1607.7km/h 29% 0in /  0mm
05:24 28.0 °F /  -2.2 °C -0.2 °F /  -17.9 °C 30.35in /  1027.7hPa NW 1.7mph /  2.7km/h -999.0mph /  -1607.7km/h 29% 0in /  0mm
05:39 28.2 °F /  -2.1 °C 0.7 °F /  -17.4 °C 30.35in /  1027.7hPa Calm   -999.0mph /  -1607.7km/h 30% 0in /  0mm
06:10 28.2 °F /  -2.1 °C -0.8 °F /  -18.2 °C 30.37in /  1028.3hPa Calm   -999.0mph /  -1607.7km/h 28% 0in /  0mm
06:25 27.3 °F /  -2.6 °C -0.8 °F /  -18.2 °C 30.38in /  1028.7hPa Calm   -999.0mph /  -1607.7km/h 29% 0in /  0mm
06:40 27.1 °F /  -2.7 °C -0.3 °F /  -17.9 °C 30.38in /  1028.7hPa Calm   -999.0mph /  -1607.7km/h 30% 0in /  0mm
06:56 27.3 °F /  -2.6 °C 0.6 °F /  -17.4 °C 30.38in /  1028.7hPa SE 2.2mph /  3.5km/h -999.0mph /  -1607.7km/h 31% 0in /  0mm
07:11 27.3 °F /  -2.6 °C 0.6 °F /  -17.4 °C 30.39in /  1029hPa South 2.7mph /  4.3km/h -999.0mph /  -1607.7km/h 31% 0in /  0mm
07:26 27.7 °F /  -2.4 °C -0.5 °F /  -18.1 °C 30.39in /  1029hPa West 2.2mph /  3.5km/h -999.0mph /  -1607.7km/h 29% 0in /  0mm
07:41 29.3 °F /  -1.5 °C -1.4 °F /  -18.6 °C 30.39in /  1029hPa SW 1.1mph /  1.8km/h -999.0mph /  -1607.7km/h 26% 0in /  0mm
08:27 32.9 °F /  0.5 °C -2.8 °F /  -19.3 °C 30.40in /  1029.3hPa Calm   -999.0mph /  -1607.7km/h 21% 0in /  0mm
08:42 33.8 °F /  1 °C -2.1 °F /  -18.9 °C 30.41in /  1029.7hPa NNW 2.7mph /  4.3km/h -999.0mph /  -1607.7km/h 21% 0in /  0mm
08:58 35.2 °F /  1.8 °C -3.0 °F /  -19.4 °C 30.41in /  1029.7hPa SW 4.7mph /  7.6km/h -999.0mph /  -1607.7km/h 19% 0in /  0mm
09:13 36.5 °F /  2.5 °C -0.8 °F /  -18.2 °C 30.41in /  1029.7hPa NW 9.4mph /  15.1km/h -999.0mph /  -1607.7km/h 20% 0in /  0mm
09:28 37.0 °F /  2.8 °C -0.4 °F /  -18 °C 30.41in /  1029.7hPa WNW 2.7mph /  4.3km/h -999.0mph /  -1607.7km/h 20% 0in /  0mm
10:30 39.4 °F /  4.1 °C 1.6 °F /  -16.9 °C 30.41in /  1029.7hPa East 3.7mph /  6km/h -999.0mph /  -1607.7km/h 20% 0in /  0mm
11:00 39.6 °F /  4.2 °C 1.8 °F /  -16.8 °C 30.40in /  1029.3hPa NW 7.8mph /  12.6km/h -999.0mph /  -1607.7km/h 20% 0in /  0mm
11:16 40.3 °F /  4.6 °C 3.4 °F /  -15.9 °C 30.40in /  1029.3hPa NNW 5.8mph /  9.3km/h -999.0mph /  -1607.7km/h 21% 0in /  0mm
11:31 40.6 °F /  4.8 °C 4.7 °F /  -15.2 °C 30.40in /  1029.3hPa South 1.7mph /  2.7km/h -999.0mph /  -1607.7km/h 22% 0in /  0mm
11:46 41.5 °F /  5.3 °C 5.4 °F /  -14.8 °C 30.39in /  1029hPa NE 3.7mph /  6km/h -999.0mph /  -1607.7km/h 22% 0in /  0mm
12:01 42.3 °F /  5.7 °C 5.1 °F /  -14.9 °C 30.39in /  1029hPa North 5.3mph /  8.5km/h -999.0mph /  -1607.7km/h 21% 0in /  0mm
12:17 42.1 °F /  5.6 °C 6.9 °F /  -13.9 °C 30.39in /  1029hPa WNW 6.3mph /  10.1km/h -999.0mph /  -1607.7km/h 23% 0in /  0mm
12:33 42.6 °F /  5.9 °C 6.4 °F /  -14.2 °C 30.38in /  1028.7hPa NW 5.3mph /  8.5km/h -999.0mph /  -1607.7km/h 22% 0in /  0mm
12:48 43.2 °F /  6.2 °C 7.9 °F /  -13.4 °C 30.38in /  1028.7hPa North 3.7mph /  6km/h -999.0mph /  -1607.7km/h 23% 0in /  0mm
13:19 42.4 °F /  5.8 °C 9.0 °F /  -12.8 °C 30.38in /  1028.7hPa ENE 6.8mph /  10.9km/h -999.0mph /  -1607.7km/h 25% 0in /  0mm
13:49 42.1 °F /  5.6 °C 7.9 °F /  -13.4 °C 30.37in /  1028.3hPa NW 4.7mph /  7.6km/h -999.0mph /  -1607.7km/h 24% 0in /  0mm
14:20 41.0 °F /  5 °C 6.9 °F /  -13.9 °C 30.37in /  1028.3hPa WNW 1.1mph /  1.8km/h -999.0mph /  -1607.7km/h 24% 0in /  0mm
14:51 40.3 °F /  4.6 °C 7.2 °F /  -13.8 °C 30.37in /  1028.3hPa West 9.9mph /  15.9km/h -999.0mph /  -1607.7km/h 25% 0in /  0mm
15:07 39.9 °F /  4.4 °C 6.9 °F /  -13.9 °C 30.38in /  1028.7hPa ENE 2.7mph /  4.3km/h -999.0mph /  -1607.7km/h 25% 0in /  0mm
15:38 39.6 °F /  4.2 °C 8.3 °F /  -13.2 °C 30.37in /  1028.3hPa East 1.1mph /  1.8km/h -999.0mph /  -1607.7km/h 27% 0in /  0mm
15:53 39.0 °F /  3.9 °C 7.8 °F /  -13.4 °C 30.38in /  1028.7hPa NE 4.7mph /  7.6km/h -999.0mph /  -1607.7km/h 27% 0in /  0mm
16:08 38.7 °F /  3.7 °C 8.4 °F /  -13.1 °C 30.38in /  1028.7hPa NE 1.1mph /  1.8km/h -999.0mph /  -1607.7km/h 28% 0in /  0mm
16:24 38.5 °F /  3.6 °C 9.7 °F /  -12.4 °C 30.38in /  1028.7hPa SW 3.2mph /  5.1km/h -999.0mph /  -1607.7km/h 30% 0in /  0mm
16:54 37.9 °F /  3.3 °C 10.6 °F /  -11.9 °C 30.39in /  1029hPa South 4.7mph /  7.6km/h -999.0mph /  -1607.7km/h 32% 0in /  0mm
17:40 36.5 °F /  2.5 °C 8.7 °F /  -12.9 °C 30.41in /  1029.7hPa SW 4.7mph /  7.6km/h -999.0mph /  -1607.7km/h 31% 0in /  0mm
17:55 36.3 °F /  2.4 °C 9.2 °F /  -12.7 °C 30.41in /  1029.7hPa West 2.7mph /  4.3km/h -999.0mph /  -1607.7km/h 32% 0in /  0mm
18:11 37.0 °F /  2.8 °C 10.5 °F /  -11.9 °C 30.42in /  1030hPa SSW 1.7mph /  2.7km/h -999.0mph /  -1607.7km/h 33% 0in /  0mm
18:41 37.8 °F /  3.2 °C 12.6 °F /  -10.8 °C 30.43in /  1030.4hPa East 1.1mph /  1.8km/h -999.0mph /  -1607.7km/h 35% 0in /  0mm
18:56 38.3 °F /  3.5 °C 13.0 °F /  -10.6 °C 30.43in /  1030.4hPa ESE 3.7mph /  6km/h -999.0mph /  -1607.7km/h 35% 0in /  0mm
19:27 37.6 °F /  3.1 °C 11.7 °F /  -11.3 °C 30.43in /  1030.4hPa North 2.7mph /  4.3km/h -999.0mph /  -1607.7km/h 34% 0in /  0mm
19:42 37.2 °F /  2.9 °C 11.4 °F /  -11.4 °C 30.43in /  1030.4hPa North 2.7mph /  4.3km/h -999.0mph /  -1607.7km/h 34% 0in /  0mm
19:58 36.7 °F /  2.6 °C 10.9 °F /  -11.7 °C 30.43in /  1030.4hPa SW 2.7mph /  4.3km/h -999.0mph /  -1607.7km/h 34% 0in /  0mm
20:13 35.6 °F /  2 °C 9.3 °F /  -12.6 °C 30.43in /  1030.4hPa SSW 1.7mph /  2.7km/h -999.0mph /  -1607.7km/h 33% 0in /  0mm
20:28 34.7 °F /  1.5 °C 8.5 °F /  -13.1 °C 30.43in /  1030.4hPa Calm   -999.0mph /  -1607.7km/h 33% 0in /  0mm
20:43 34.0 °F /  1.1 °C 7.2 °F /  -13.8 °C 30.44in /  1030.7hPa Calm   -999.0mph /  -1607.7km/h 32% 0in /  0mm
21:14 34.0 °F /  1.1 °C 6.5 °F /  -14.2 °C 30.44in /  1030.7hPa Calm   -999.0mph /  -1607.7km/h 31% 0in /  0mm
21:29 34.2 °F /  1.2 °C 6.7 °F /  -14.1 °C 30.44in /  1030.7hPa South 2.2mph /  3.5km/h -999.0mph /  -1607.7km/h 31% 0in /  0mm
21:59 34.7 °F /  1.5 °C 6.4 °F /  -14.2 °C 30.44in /  1030.7hPa Calm   -999.0mph /  -1607.7km/h 30% 0in /  0mm
22:30 35.2 °F /  1.8 °C 6.1 °F /  -14.4 °C 30.44in /  1030.7hPa SSW 1.1mph /  1.8km/h -999.0mph /  -1607.7km/h 29% 0in /  0mm
22:45 35.2 °F /  1.8 °C 6.8 °F /  -14 °C 30.44in /  1030.7hPa South 1.1mph /  1.8km/h -999.0mph /  -1607.7km/h 30% 0in /  0mm
23:00 35.4 °F /  1.9 °C 7.0 °F /  -13.9 °C 30.44in /  1030.7hPa North 1.1mph /  1.8km/h -999.0mph /  -1607.7km/h 30% 0in /  0mm
23:15 35.4 °F /  1.9 °C 7.7 °F /  -13.5 °C 30.44in /  1030.7hPa Calm   -999.0mph /  -1607.7km/h 31% 0in /  0mm
23:31 35.8 °F /  2.1 °C 8.1 °F /  -13.3 °C 30.44in /  1030.7hPa West 3.7mph /  6km/h -999.0mph /  -1607.7km/h 31% 0in /  0mm
23:46 35.6 °F /  2 °C 7.9 °F /  -13.4 °C 30.44in /  1030.7hPa SSE 2.7mph /  4.3km/h -999.0mph /  -1607.7km/h 31% 0in /  0mm
Big Bear CA Weather